createdAt,value
2018-09-28T00:00:54.809Z,79.62
2018-09-28T00:03:24.707Z,79.93
2018-09-28T00:05:54.722Z,80.16
2018-09-28T00:08:24.626Z,80.08
2018-09-28T00:10:54.486Z,80.23
2018-09-28T00:13:24.421Z,80.20
2018-09-28T00:15:54.268Z,80.52
2018-09-28T00:18:24.121Z,80.66
2018-09-28T00:20:53.933Z,80.83
2018-09-28T00:23:23.681Z,80.71
2018-09-28T00:25:53.589Z,80.78
2018-09-28T00:28:23.400Z,80.89
2018-09-28T00:30:53.279Z,81.05
2018-09-28T00:33:23.057Z,80.91
2018-09-28T00:35:52.839Z,80.85
2018-09-28T00:38:22.717Z,81.46
2018-09-28T00:40:52.361Z,81.03
2018-09-28T00:43:22.236Z,81.68
2018-09-28T00:45:52.081Z,81.74
2018-09-28T00:48:21.915Z,81.73
2018-09-28T00:50:51.722Z,81.78
2018-09-28T00:53:21.511Z,81.26
2018-09-28T00:55:51.317Z,81.34
2018-09-28T00:58:21.221Z,81.29
2018-09-28T01:00:51.071Z,81.36
2018-09-28T01:03:20.964Z,81.51
2018-09-28T01:05:50.742Z,81.19
2018-09-28T01:08:20.631Z,81.37
2018-09-28T01:10:50.434Z,81.47
2018-09-28T01:13:20.301Z,81.78
2018-09-28T01:15:50.117Z,81.93
2018-09-28T01:18:19.951Z,81.93
2018-09-28T01:20:49.750Z,82.32
2018-09-28T01:23:19.650Z,82.07
2018-09-28T01:25:49.539Z,82.10
2018-09-28T01:28:19.361Z,82.20
2018-09-28T01:30:49.182Z,81.77
2018-09-28T01:33:19.115Z,82.12
2018-09-28T01:35:49.058Z,82.17
2018-09-28T01:38:18.919Z,82.20
2018-09-28T01:40:48.787Z,82.44
2018-09-28T01:43:18.703Z,82.08
2018-09-28T01:45:48.541Z,81.86
2018-09-28T01:48:18.338Z,81.86
2018-09-28T01:50:48.178Z,82.14
2018-09-28T01:53:18.057Z,81.95
2018-09-28T01:55:47.854Z,81.59
2018-09-28T01:58:17.716Z,81.91
2018-09-28T02:00:47.572Z,82.10
2018-09-28T02:03:17.397Z,82.37
2018-09-28T02:05:47.325Z,82.28
2018-09-28T02:08:17.111Z,82.52
2018-09-28T02:10:47.019Z,82.33
2018-09-28T02:13:16.917Z,82.27
2018-09-28T02:15:46.843Z,82.16
2018-09-28T02:18:16.759Z,82.48
2018-09-28T02:20:46.580Z,82.69
2018-09-28T02:23:16.358Z,82.79
2018-09-28T02:25:46.214Z,82.42
2018-09-28T02:28:16.058Z,82.38
2018-09-28T02:30:45.883Z,82.51
2018-09-28T02:33:15.783Z,82.48
2018-09-28T02:35:45.679Z,82.99
2018-09-28T02:38:15.546Z,82.54
2018-09-28T02:40:45.733Z,82.65
2018-09-28T02:43:15.645Z,82.73
2018-09-28T02:45:45.521Z,82.70
2018-09-28T02:48:15.453Z,82.60
2018-09-28T02:50:45.415Z,82.46
2018-09-28T02:53:18.604Z,82.71
2018-09-28T02:55:49.781Z,82.61
2018-09-28T02:58:19.592Z,82.43
2018-09-28T03:00:49.514Z,82.26
2018-09-28T03:03:19.406Z,81.88
2018-09-28T03:05:49.329Z,82.10
2018-09-28T03:08:19.192Z,82.64
2018-09-28T03:10:49.165Z,82.79
2018-09-28T03:13:19.041Z,82.96
2018-09-28T03:15:48.900Z,82.50
2018-09-28T03:18:18.737Z,82.39
2018-09-28T03:20:48.611Z,82.32
2018-09-28T03:23:18.525Z,83.06
2018-09-28T03:25:48.396Z,83.56
2018-09-28T03:28:18.235Z,83.23
2018-09-28T03:30:48.163Z,83.05
2018-09-28T03:33:17.955Z,82.53
2018-09-28T03:35:47.782Z,82.36
2018-09-28T03:38:17.603Z,82.17
2018-09-28T03:40:47.482Z,82.25
2018-09-28T03:43:17.375Z,82.67
2018-09-28T03:45:47.183Z,82.59
2018-09-28T03:48:17.092Z,82.81
2018-09-28T03:50:46.875Z,82.41
2018-09-28T03:53:16.724Z,82.71
2018-09-28T03:55:46.526Z,82.72
2018-09-28T03:58:16.363Z,82.80
2018-09-28T04:00:46.220Z,83.00
2018-09-28T04:03:15.962Z,82.93
2018-09-28T04:05:45.821Z,83.25
2018-09-28T04:08:15.691Z,83.42
2018-09-28T04:10:45.528Z,83.33
2018-09-28T04:13:15.281Z,82.78
2018-09-28T04:15:45.035Z,82.49
2018-09-28T04:18:14.752Z,82.30
2018-09-28T04:20:44.541Z,81.92
2018-09-28T04:23:14.456Z,82.88
2018-09-28T04:25:44.219Z,82.87
2018-09-28T04:28:14.028Z,83.06
2018-09-28T04:30:43.814Z,83.38
2018-09-28T04:33:13.567Z,83.55
2018-09-28T04:35:44.205Z,83.53
2018-09-28T04:38:14.086Z,83.62
2018-09-28T04:40:43.943Z,83.54
2018-09-28T04:43:13.794Z,83.42
2018-09-28T04:45:43.707Z,82.99
2018-09-28T04:48:13.481Z,83.38
2018-09-28T04:50:43.426Z,83.18
2018-09-28T04:53:13.196Z,83.02
2018-09-28T04:55:43.130Z,82.95
2018-09-28T04:58:12.939Z,83.12
2018-09-28T05:00:42.786Z,83.08
2018-09-28T05:03:12.653Z,83.29
2018-09-28T05:05:42.505Z,83.13
2018-09-28T05:08:12.227Z,83.29
2018-09-28T05:10:42.099Z,83.11
2018-09-28T05:13:12.073Z,83.08
2018-09-28T05:15:41.821Z,83.12
2018-09-28T05:18:11.746Z,82.19
2018-09-28T05:20:41.562Z,81.47
2018-09-28T05:23:11.323Z,81.32
2018-09-28T05:25:41.163Z,81.45
2018-09-28T05:28:10.924Z,81.62
2018-09-28T05:30:44.976Z,80.76
2018-09-28T05:33:10.589Z,80.12
2018-09-28T05:35:40.406Z,78.81
2018-09-28T05:38:10.433Z,77.86
2018-09-28T05:40:40.724Z,76.72
2018-09-28T05:43:10.632Z,76.45
2018-09-28T05:45:40.457Z,76.27
2018-09-28T05:48:10.275Z,76.23
2018-09-28T05:50:40.125Z,76.57
2018-09-28T05:53:09.961Z,76.96
2018-09-28T05:55:39.768Z,77.04
2018-09-28T05:58:14.643Z,77.34
2018-09-28T06:00:49.445Z,77.08
2018-09-28T06:03:20.772Z,77.40
2018-09-28T06:05:55.831Z,77.58
2018-09-28T06:08:25.668Z,77.50
2018-09-28T06:10:55.537Z,76.97
2018-09-28T06:13:25.321Z,76.73
2018-09-28T06:15:55.174Z,77.14
2018-09-28T06:18:25.872Z,78.58
2018-09-28T06:20:55.776Z,77.09
2018-09-28T06:23:25.615Z,76.33
2018-09-28T06:25:55.469Z,74.78
2018-09-28T06:28:25.309Z,73.90
2018-09-28T06:30:55.193Z,72.56
2018-09-28T06:33:25.055Z,72.54
2018-09-28T06:35:55.047Z,71.81
2018-09-28T06:38:24.978Z,71.38
2018-09-28T06:40:54.802Z,71.58
2018-09-28T06:43:24.666Z,71.36
2018-09-28T06:45:54.721Z,71.05
2018-09-28T06:48:24.633Z,70.40
2018-09-28T06:50:54.540Z,70.63
2018-09-28T06:53:24.417Z,70.72
2018-09-28T06:55:54.339Z,70.71
2018-09-28T06:58:24.225Z,70.78
2018-09-28T07:00:54.089Z,70.58
2018-09-28T07:03:23.919Z,70.50
2018-09-28T07:05:54.039Z,69.84
2018-09-28T07:08:23.885Z,69.93
2018-09-28T07:10:54.257Z,69.73
2018-09-28T07:13:24.065Z,69.59
2018-09-28T07:15:53.917Z,69.18
2018-09-28T07:18:23.980Z,69.70
2018-09-28T07:20:53.734Z,69.86
2018-09-28T07:23:23.601Z,69.97
2018-09-28T07:25:53.533Z,70.38
2018-09-28T07:28:23.538Z,69.92
2018-09-28T07:30:53.413Z,69.71
2018-09-28T07:33:23.706Z,69.36
2018-09-28T07:35:53.878Z,68.74
2018-09-28T07:38:23.736Z,68.83
2018-09-28T07:40:53.678Z,68.42
2018-09-28T07:43:23.871Z,68.42
2018-09-28T07:45:53.833Z,67.34
2018-09-28T07:48:23.722Z,66.79
2018-09-28T07:50:53.481Z,66.27
2018-09-28T07:53:23.302Z,65.51
2018-09-28T07:55:53.245Z,65.57
2018-09-28T07:58:23.050Z,65.44
2018-09-28T08:00:52.911Z,65.41
2018-09-28T08:03:28.117Z,65.43
2018-09-28T08:05:59.486Z,64.54
2018-09-28T08:08:29.321Z,64.87
2018-09-28T08:10:59.193Z,64.19
2018-09-28T08:13:29.102Z,63.65
2018-09-28T08:15:58.973Z,62.83
2018-09-28T08:18:28.855Z,61.36
2018-09-28T08:20:58.713Z,60.21
2018-09-28T08:23:28.506Z,59.84
2018-09-28T08:25:58.443Z,59.37
2018-09-28T08:28:28.385Z,57.03
2018-09-28T08:30:58.285Z,57.11
2018-09-28T08:33:28.255Z,55.26
2018-09-28T08:35:58.097Z,55.71
2018-09-28T08:38:28.120Z,53.90
2018-09-28T08:40:58.070Z,53.52
2018-09-28T08:43:27.976Z,53.57
2018-09-28T08:45:57.817Z,52.27
2018-09-28T08:48:27.827Z,52.38
2018-09-28T08:50:57.705Z,52.01
2018-09-28T08:53:27.637Z,51.71
2018-09-28T08:55:57.441Z,52.46
2018-09-28T08:58:27.381Z,50.19
2018-09-28T09:00:57.229Z,51.23
2018-09-28T09:03:27.138Z,50.13
2018-09-28T09:05:57.061Z,51.20
2018-09-28T09:08:27.007Z,50.30
2018-09-28T09:10:56.851Z,49.80
2018-09-28T09:13:26.719Z,49.69
2018-09-28T09:15:56.687Z,49.23
2018-09-28T09:18:26.626Z,48.38
2018-09-28T09:20:56.475Z,49.25
2018-09-28T09:23:26.343Z,48.90
2018-09-28T09:25:56.284Z,48.45
2018-09-28T09:28:26.207Z,48.21
2018-09-28T09:30:56.133Z,48.22
2018-09-28T09:33:26.009Z,48.10
2018-09-28T09:35:55.869Z,49.13
2018-09-28T09:38:25.818Z,47.43
2018-09-28T09:40:55.605Z,47.45
2018-09-28T09:43:25.565Z,48.19
2018-09-28T09:45:55.481Z,47.32
2018-09-28T09:48:25.401Z,47.23
2018-09-28T09:50:55.333Z,46.66
2018-09-28T09:53:25.279Z,47.26
2018-09-28T09:55:55.115Z,46.61
2018-09-28T09:58:25.062Z,46.33
2018-09-28T10:01:00.088Z,46.61
2018-09-28T10:03:35.223Z,46.50
2018-09-28T10:06:05.093Z,46.20
2018-09-28T10:08:35.026Z,44.98
2018-09-28T10:11:05.063Z,45.82
2018-09-28T10:13:34.867Z,46.05
2018-09-28T10:16:04.801Z,45.09
2018-09-28T10:18:34.838Z,45.03
2018-09-28T10:21:04.737Z,43.57
2018-09-28T10:23:34.620Z,41.97
2018-09-28T10:26:04.452Z,43.13
2018-09-28T10:28:34.438Z,43.31
2018-09-28T10:31:04.436Z,41.38
2018-09-28T10:33:34.362Z,40.98
2018-09-28T10:36:04.261Z,41.76
2018-09-28T10:38:34.235Z,40.51
2018-09-28T10:41:04.162Z,37.77
2018-09-28T10:43:34.015Z,36.22
2018-09-28T10:46:04.018Z,37.61
2018-09-28T10:48:33.941Z,39.10
2018-09-28T10:51:03.836Z,38.46
2018-09-28T10:53:33.729Z,32.97
2018-09-28T10:56:03.713Z,37.30
2018-09-28T10:58:33.621Z,38.89
2018-09-28T11:01:03.547Z,37.03
2018-09-28T11:03:33.493Z,36.80
2018-09-28T11:06:03.287Z,36.11
2018-09-28T11:08:33.106Z,34.92
2018-09-28T11:11:02.834Z,35.68
2018-09-28T11:13:32.662Z,34.32
2018-09-28T11:16:02.462Z,35.03
2018-09-28T11:18:32.305Z,34.23
2018-09-28T11:21:02.106Z,34.51
2018-09-28T11:23:31.896Z,33.66
2018-09-28T11:26:01.797Z,34.20
2018-09-28T11:28:32.208Z,35.58
2018-09-28T11:31:02.003Z,34.14
2018-09-28T11:33:31.972Z,34.31
2018-09-28T11:36:01.985Z,35.13
2018-09-28T11:38:31.918Z,35.07
2018-09-28T11:41:01.812Z,36.35
2018-09-28T11:43:31.719Z,36.94
2018-09-28T11:46:01.670Z,37.65
2018-09-28T11:48:31.594Z,38.08
2018-09-28T11:51:01.575Z,37.98
2018-09-28T11:53:31.620Z,38.16
2018-09-28T11:56:01.577Z,38.27
2018-09-28T11:58:31.562Z,38.69
2018-09-28T12:01:01.524Z,39.04
2018-09-28T12:03:31.442Z,41.11
2018-09-28T12:06:01.315Z,41.41
2018-09-28T12:08:31.248Z,41.22
2018-09-28T12:11:01.201Z,40.73
2018-09-28T12:13:31.116Z,40.97
2018-09-28T12:16:00.953Z,40.43
2018-09-28T12:18:30.865Z,41.44
2018-09-28T12:21:00.903Z,41.76
2018-09-28T12:23:30.895Z,41.80
2018-09-28T12:26:00.843Z,41.99
2018-09-28T12:28:30.785Z,42.33
2018-09-28T12:31:00.644Z,42.43
2018-09-28T12:33:30.607Z,42.44
2018-09-28T12:36:00.522Z,42.88
2018-09-28T12:38:30.497Z,42.80
2018-09-28T12:41:00.435Z,42.75
2018-09-28T12:43:35.031Z,42.94
2018-09-28T12:46:01.234Z,43.66
2018-09-28T12:48:31.138Z,43.69
2018-09-28T12:51:01.051Z,44.18
2018-09-28T12:53:31.105Z,44.29
2018-09-28T12:56:01.093Z,44.82
2018-09-28T12:58:30.961Z,45.00
2018-09-28T13:01:01.056Z,44.98
2018-09-28T13:03:30.952Z,45.81
2018-09-28T13:06:00.805Z,45.32
2018-09-28T13:08:30.811Z,45.50
2018-09-28T13:11:00.563Z,46.40
2018-09-28T13:13:30.454Z,46.42
2018-09-28T13:16:00.495Z,46.00
2018-09-28T13:18:30.423Z,45.89
2018-09-28T13:21:00.404Z,45.84
2018-09-28T13:23:30.290Z,46.00
2018-09-28T13:26:00.195Z,46.03
2018-09-28T13:28:30.173Z,46.77
2018-09-28T13:31:00.178Z,46.75
2018-09-28T13:33:30.173Z,46.92
2018-09-28T13:36:00.063Z,47.12
2018-09-28T13:38:30.345Z,47.10
2018-09-28T13:41:00.175Z,46.81
2018-09-28T13:43:30.347Z,46.66
2018-09-28T13:46:00.340Z,46.70
2018-09-28T13:48:30.255Z,47.38
2018-09-28T13:51:00.042Z,47.69
2018-09-28T13:53:30.849Z,48.09
2018-09-28T13:56:00.798Z,47.63
2018-09-28T13:58:30.786Z,48.03
2018-09-28T14:01:00.641Z,48.19
2018-09-28T14:03:30.593Z,47.97
2018-09-28T14:06:00.517Z,48.81
2018-09-28T14:08:30.561Z,48.55
2018-09-28T14:11:00.465Z,49.09
2018-09-28T14:13:30.413Z,49.73
2018-09-28T14:16:00.309Z,49.17
2018-09-28T14:18:30.292Z,49.32
2018-09-28T14:21:00.202Z,49.38
2018-09-28T14:23:30.031Z,49.64
2018-09-28T14:26:00.313Z,50.07
2018-09-28T14:28:30.336Z,50.43
2018-09-28T14:31:00.294Z,50.32
2018-09-28T14:33:30.214Z,50.47
2018-09-28T14:36:00.114Z,50.15
2018-09-28T14:38:29.940Z,50.24
2018-09-28T14:40:59.862Z,50.15
2018-09-28T14:43:29.765Z,50.84
2018-09-28T14:45:59.661Z,51.08
2018-09-28T14:48:29.598Z,50.65
2018-09-28T14:50:59.446Z,50.72
2018-09-28T14:53:29.227Z,50.99
2018-09-28T14:55:59.080Z,51.06
2018-09-28T14:58:28.938Z,51.58
2018-09-28T15:00:58.786Z,52.29
2018-09-28T15:03:28.611Z,52.21
2018-09-28T15:05:58.449Z,52.78
2018-09-28T15:08:28.421Z,52.82
2018-09-28T15:10:58.447Z,52.42
2018-09-28T15:13:28.394Z,53.00
2018-09-28T15:15:58.326Z,52.33
2018-09-28T15:18:28.342Z,52.59
2018-09-28T15:20:58.322Z,52.24
2018-09-28T15:23:28.395Z,52.35
2018-09-28T15:25:58.330Z,52.71
2018-09-28T15:28:28.315Z,52.54
2018-09-28T15:30:58.464Z,53.13
2018-09-28T15:33:28.399Z,53.29
2018-09-28T15:35:58.310Z,53.05
2018-09-28T15:38:28.285Z,53.05
2018-09-28T15:40:58.799Z,53.40
2018-09-28T15:43:28.813Z,53.37
2018-09-28T15:45:58.765Z,53.31
2018-09-28T15:48:28.744Z,53.38
2018-09-28T15:50:58.712Z,53.24
2018-09-28T15:53:28.579Z,53.46
2018-09-28T15:55:58.400Z,53.80
2018-09-28T15:58:28.291Z,54.00
2018-09-28T16:00:58.285Z,54.32
2018-09-28T16:03:28.071Z,54.33
2018-09-28T16:05:58.016Z,54.21
2018-09-28T16:08:28.090Z,54.20
2018-09-28T16:10:57.979Z,54.84
2018-09-28T16:13:27.854Z,55.19
2018-09-28T16:15:57.733Z,54.95
2018-09-28T16:18:27.731Z,55.44
2018-09-28T16:20:57.743Z,56.21
2018-09-28T16:23:27.813Z,56.14
2018-09-28T16:25:57.855Z,56.19
2018-09-28T16:28:27.794Z,56.53
2018-09-28T16:30:57.834Z,57.20
2018-09-28T16:33:27.775Z,57.48
2018-09-28T16:35:57.641Z,58.95
2018-09-28T16:38:27.665Z,59.66
2018-09-28T16:40:57.623Z,60.35
2018-09-28T16:43:27.520Z,61.40
2018-09-28T16:45:57.541Z,62.36
2018-09-28T16:48:27.465Z,62.31
2018-09-28T16:50:57.455Z,62.35
2018-09-28T16:53:27.437Z,63.51
2018-09-28T16:55:57.225Z,64.39
2018-09-28T16:58:27.173Z,64.76
2018-09-28T17:00:58.691Z,64.90
2018-09-28T17:03:29.273Z,65.29
2018-09-28T17:05:59.405Z,65.98
2018-09-28T17:08:29.366Z,66.51
2018-09-28T17:10:59.245Z,67.07
2018-09-28T17:13:29.176Z,68.01
2018-09-28T17:15:59.024Z,68.35
2018-09-28T17:18:28.756Z,68.19
2018-09-28T17:20:58.925Z,68.45
2018-09-28T17:23:29.178Z,68.82
2018-09-28T17:25:59.352Z,68.67
2018-09-28T17:28:29.551Z,68.56
2018-09-28T17:30:59.700Z,69.12
2018-09-28T17:33:29.887Z,69.34
2018-09-28T17:35:59.948Z,70.23
2018-09-28T17:38:29.944Z,70.47
2018-09-28T17:41:00.083Z,70.72
2018-09-28T17:43:30.223Z,70.01
2018-09-28T17:46:00.935Z,69.89
2018-09-28T17:48:30.976Z,70.34
2018-09-28T17:51:01.128Z,70.79
2018-09-28T17:53:31.589Z,70.63
2018-09-28T17:56:01.746Z,70.87
2018-09-28T17:58:31.938Z,71.00
2018-09-28T18:01:02.035Z,71.26
2018-09-28T18:03:32.002Z,71.35
2018-09-28T18:06:02.396Z,71.95
2018-09-28T18:08:32.630Z,72.37
2018-09-28T18:11:06.103Z,72.18
2018-09-28T18:13:36.463Z,72.54
2018-09-28T18:16:06.805Z,72.71
2018-09-28T18:18:37.142Z,73.03
2018-09-28T18:21:07.550Z,73.57
2018-09-28T18:23:38.305Z,73.61
2018-09-28T18:26:08.635Z,73.78
2018-09-28T18:28:38.985Z,73.63
2018-09-28T18:31:09.418Z,73.66
2018-09-28T18:33:39.963Z,73.73
2018-09-28T18:36:10.333Z,74.19
2018-09-28T18:38:40.690Z,74.64
2018-09-28T18:41:11.182Z,75.37
2018-09-28T18:43:41.617Z,75.25
2018-09-28T18:46:12.038Z,75.72
2018-09-28T18:48:42.600Z,76.00
2018-09-28T18:51:13.602Z,76.17
2018-09-28T18:53:44.244Z,76.29
2018-09-28T18:56:14.642Z,77.11
2018-09-28T18:58:45.236Z,77.08
2018-09-28T19:01:15.771Z,77.09
2018-09-28T19:03:46.182Z,76.84
2018-09-28T19:06:16.708Z,76.88
2018-09-28T19:08:47.158Z,77.30
2018-09-28T19:11:17.708Z,78.27
2018-09-28T19:13:48.222Z,78.04
2018-09-28T19:16:19.387Z,77.70
2018-09-28T19:18:50.638Z,77.54
2018-09-28T19:21:22.805Z,78.06
2018-09-28T19:23:53.349Z,77.98
2018-09-28T19:26:23.864Z,78.63
2018-09-28T19:28:54.313Z,79.07
2018-09-28T19:31:24.831Z,79.53
2018-09-28T19:33:55.263Z,79.29
2018-09-28T19:36:25.903Z,79.80
2018-09-28T19:38:56.475Z,79.51
2018-09-28T19:41:27.655Z,79.49
2018-09-28T19:43:58.114Z,79.38
2018-09-28T19:46:29.515Z,79.82
2018-09-28T19:49:00.428Z,79.87
2018-09-28T19:51:31.205Z,79.69
2018-09-28T19:54:01.934Z,80.14
2018-09-28T19:56:32.360Z,79.73
2018-09-28T19:59:02.906Z,79.45
2018-09-28T20:01:33.391Z,78.70
2018-09-28T20:04:03.866Z,78.25
2018-09-28T20:06:34.442Z,78.35
2018-09-28T20:09:05.384Z,79.01
2018-09-28T20:11:35.904Z,79.26
2018-09-28T20:14:06.035Z,79.33
2018-09-28T20:16:36.329Z,79.80
2018-09-28T20:19:06.921Z,79.67
2018-09-28T20:21:38.101Z,79.66
2018-09-28T20:24:08.874Z,79.86
2018-09-28T20:26:39.673Z,80.22
2018-09-28T20:29:09.785Z,80.12
2018-09-28T20:31:40.545Z,80.20
2018-09-28T20:34:11.342Z,80.99
2018-09-28T20:36:42.333Z,80.88
2018-09-28T20:39:13.553Z,81.17
2018-09-28T20:41:43.540Z,80.52
2018-09-28T20:44:13.363Z,80.50
2018-09-28T20:46:43.219Z,80.48
2018-09-28T20:49:13.763Z,80.76
2018-09-28T20:51:43.788Z,81.24
2018-09-28T20:54:13.761Z,80.80
2018-09-28T20:56:45.021Z,81.00
2018-09-28T20:59:15.217Z,81.76
2018-09-28T21:01:45.324Z,81.25
2018-09-28T21:04:15.645Z,80.71
2018-09-28T21:06:46.401Z,80.56
2018-09-28T21:09:16.585Z,80.93
2018-09-28T21:11:46.365Z,81.17
2018-09-28T21:14:17.137Z,81.66
2018-09-28T21:16:47.409Z,81.11
2018-09-28T21:19:17.457Z,81.81
2018-09-28T21:21:47.945Z,81.45
2018-09-28T21:24:17.824Z,81.63
2018-09-28T21:26:48.217Z,82.35
2018-09-28T21:29:17.944Z,82.31
2018-09-28T21:31:48.357Z,82.38
2018-09-28T21:34:18.718Z,82.56
2018-09-28T21:36:48.375Z,82.69
2018-09-28T21:39:18.113Z,82.59
2018-09-28T21:41:48.044Z,83.00
2018-09-28T21:44:19.429Z,82.88
2018-09-28T21:46:49.587Z,83.25
2018-09-28T21:49:19.897Z,82.78
2018-09-28T21:51:56.173Z,82.79
2018-09-28T21:54:26.166Z,82.90
2018-09-28T21:56:56.957Z,83.02
2018-09-28T21:59:27.490Z,82.60
2018-09-28T22:01:58.017Z,82.35
2018-09-28T22:04:28.052Z,82.56
2018-09-28T22:06:58.650Z,82.83
2018-09-28T22:09:28.466Z,83.58
2018-09-28T22:11:58.420Z,83.74
2018-09-28T22:14:28.977Z,83.51
2018-09-28T22:16:58.686Z,83.94
2018-09-28T22:19:28.664Z,83.52
2018-09-28T22:21:58.876Z,84.36
2018-09-28T22:24:28.518Z,84.02
2018-09-28T22:26:58.837Z,84.12
2018-09-28T22:29:28.891Z,84.27
2018-09-28T22:31:58.685Z,85.00
2018-09-28T22:34:28.717Z,84.63
2018-09-28T22:36:59.061Z,84.47
2018-09-28T22:39:29.710Z,84.18
2018-09-28T22:42:00.357Z,84.13
2018-09-28T22:44:31.080Z,83.98
2018-09-28T22:47:02.079Z,84.45
2018-09-28T22:49:31.906Z,84.66
2018-09-28T22:52:02.297Z,84.81
2018-09-28T22:54:32.724Z,85.03
2018-09-28T22:57:04.403Z,84.92
2018-09-28T22:59:35.025Z,84.73
2018-09-28T23:02:04.750Z,84.45
2018-09-28T23:04:34.710Z,84.71
2018-09-28T23:07:05.636Z,84.43
2018-09-28T23:09:35.941Z,84.67
2018-09-28T23:12:05.965Z,84.93
2018-09-28T23:14:38.054Z,84.45
2018-09-28T23:17:08.940Z,83.76
2018-09-28T23:19:39.463Z,83.82
2018-09-28T23:22:09.417Z,83.95
2018-09-28T23:24:40.008Z,83.05
2018-09-28T23:27:10.241Z,83.22
2018-09-28T23:29:40.777Z,83.17
2018-09-28T23:32:12.395Z,82.66
2018-09-28T23:34:42.098Z,82.92
2018-09-28T23:37:11.825Z,82.76
2018-09-28T23:39:42.332Z,82.81
2018-09-28T23:42:13.337Z,83.14
2018-09-28T23:44:45.129Z,83.33
2018-09-28T23:47:14.816Z,83.17
2018-09-28T23:49:45.542Z,83.55
2018-09-28T23:52:15.782Z,83.68
2018-09-28T23:54:45.373Z,82.84
2018-09-28T23:57:15.513Z,83.56
2018-09-28T23:59:45.940Z,83.94
